sensor_id;sensor_type;location;lat;lon;timestamp;temperature;humidity
13835;DHT22;6988;52.614;13.500;2023-03-31T00:01:36;10.30;99.90
13835;DHT22;6988;52.614;13.500;2023-03-31T00:06:33;10.30;99.90
13835;DHT22;6988;52.614;13.500;2023-03-31T00:11:27;10.30;99.90
13835;DHT22;6988;52.614;13.500;2023-03-31T00:16:20;10.40;99.90
13835;DHT22;6988;52.614;13.500;2023-03-31T00:21:15;10.30;99.90
13835;DHT22;6988;52.614;13.500;2023-03-31T00:26:14;10.30;99.90
13835;DHT22;6988;52.614;13.500;2023-03-31T00:31:06;10.30;99.90
13835;DHT22;6988;52.614;13.500;2023-03-31T00:35:58;10.30;99.90
13835;DHT22;6988;52.614;13.500;2023-03-31T00:40:52;10.40;99.90
13835;DHT22;6988;52.614;13.500;2023-03-31T00:45:44;10.40;99.90
13835;DHT22;6988;52.614;13.500;2023-03-31T00:50:40;10.40;99.90
13835;DHT22;6988;52.614;13.500;2023-03-31T00:55:42;10.40;99.90
13835;DHT22;6988;52.614;13.500;2023-03-31T01:00:40;10.40;99.90
13835;DHT22;6988;52.614;13.500;2023-03-31T01:05:37;10.40;99.90
13835;DHT22;6988;52.614;13.500;2023-03-31T01:10:35;10.40;99.90
13835;DHT22;6988;52.614;13.500;2023-03-31T01:15:31;10.40;99.90
13835;DHT22;6988;52.614;13.500;2023-03-31T01:20:31;10.40;99.90
13835;DHT22;6988;52.614;13.500;2023-03-31T01:37:36;10.30;99.90
13835;DHT22;6988;52.614;13.500;2023-03-31T01:42:52;10.10;99.90
13835;DHT22;6988;52.614;13.500;2023-03-31T01:47:55;10.10;99.90
13835;DHT22;6988;52.614;13.500;2023-03-31T01:52:55;10.10;99.90
13835;DHT22;6988;52.614;13.500;2023-03-31T01:57:57;10.00;99.90
13835;DHT22;6988;52.614;13.500;2023-03-31T02:02:59;10.00;99.90
13835;DHT22;6988;52.614;13.500;2023-03-31T02:08:00;9.90;99.90
13835;DHT22;6988;52.614;13.500;2023-03-31T02:12:59;9.80;99.90
13835;DHT22;6988;52.614;13.500;2023-03-31T02:17:55;9.90;99.90
13835;DHT22;6988;52.614;13.500;2023-03-31T02:22:52;9.80;99.90
13835;DHT22;6988;52.614;13.500;2023-03-31T02:27:50;9.80;99.90
13835;DHT22;6988;52.614;13.500;2023-03-31T02:32:48;9.90;99.90
13835;DHT22;6988;52.614;13.500;2023-03-31T02:37:42;9.90;99.90
13835;DHT22;6988;52.614;13.500;2023-03-31T02:42:37;9.90;99.90
13835;DHT22;6988;52.614;13.500;2023-03-31T02:47:30;9.90;99.90
13835;DHT22;6988;52.614;13.500;2023-03-31T02:52:35;9.80;99.90
13835;DHT22;6988;52.614;13.500;2023-03-31T02:58:09;9.80;99.90
13835;DHT22;6988;52.614;13.500;2023-03-31T03:03:23;9.80;99.90
13835;DHT22;6988;52.614;13.500;2023-03-31T03:08:35;9.80;99.90
13835;DHT22;6988;52.614;13.500;2023-03-31T03:13:48;9.80;99.90
13835;DHT22;6988;52.614;13.500;2023-03-31T03:18:42;9.80;99.90
13835;DHT22;6988;52.614;13.500;2023-03-31T03:23:35;9.80;99.90
13835;DHT22;6988;52.614;13.500;2023-03-31T03:28:27;9.70;99.90
13835;DHT22;6988;52.614;13.500;2023-03-31T03:33:19;9.70;99.90
13835;DHT22;6988;52.614;13.500;2023-03-31T03:38:14;9.80;99.90
13835;DHT22;6988;52.614;13.500;2023-03-31T03:43:07;9.80;99.90
13835;DHT22;6988;52.614;13.500;2023-03-31T03:47:59;9.80;99.90
13835;DHT22;6988;52.614;13.500;2023-03-31T03:52:51;9.80;99.90
13835;DHT22;6988;52.614;13.500;2023-03-31T03:57:43;9.80;99.90
13835;DHT22;6988;52.614;13.500;2023-03-31T04:02:36;9.80;99.90
13835;DHT22;6988;52.614;13.500;2023-03-31T04:07:28;9.80;99.90
13835;DHT22;6988;52.614;13.500;2023-03-31T04:12:20;9.80;99.90
13835;DHT22;6988;52.614;13.500;2023-03-31T04:17:12;9.80;99.90
13835;DHT22;6988;52.614;13.500;2023-03-31T04:22:06;9.80;99.90
13835;DHT22;6988;52.614;13.500;2023-03-31T04:27:01;9.90;99.90
13835;DHT22;6988;52.614;13.500;2023-03-31T04:31:56;9.80;99.90
13835;DHT22;6988;52.614;13.500;2023-03-31T04:36:48;9.90;99.90
13835;DHT22;6988;52.614;13.500;2023-03-31T04:41:42;9.90;99.90
13835;DHT22;6988;52.614;13.500;2023-03-31T04:46:34;9.90;99.90
13835;DHT22;6988;52.614;13.500;2023-03-31T04:51:27;9.90;99.90
13835;DHT22;6988;52.614;13.500;2023-03-31T04:56:19;9.90;99.90
13835;DHT22;6988;52.614;13.500;2023-03-31T05:01:13;9.90;99.90
13835;DHT22;6988;52.614;13.500;2023-03-31T05:06:07;9.90;99.90
13835;DHT22;6988;52.614;13.500;2023-03-31T05:10:59;9.90;99.90
13835;DHT22;6988;52.614;13.500;2023-03-31T05:15:53;9.90;99.90
13835;DHT22;6988;52.614;13.500;2023-03-31T05:20:46;9.90;99.90
13835;DHT22;6988;52.614;13.500;2023-03-31T05:25:38;10.00;99.90
13835;DHT22;6988;52.614;13.500;2023-03-31T05:30:31;10.10;99.90
13835;DHT22;6988;52.614;13.500;2023-03-31T05:35:23;10.10;99.90
13835;DHT22;6988;52.614;13.500;2023-03-31T05:40:18;10.10;99.90
13835;DHT22;6988;52.614;13.500;2023-03-31T05:45:10;10.00;99.90
13835;DHT22;6988;52.614;13.500;2023-03-31T05:50:02;10.10;99.90
13835;DHT22;6988;52.614;13.500;2023-03-31T05:55:19;10.20;99.90
13835;DHT22;6988;52.614;13.500;2023-03-31T06:00:12;10.20;99.90
13835;DHT22;6988;52.614;13.500;2023-03-31T06:05:05;10.30;99.90
13835;DHT22;6988;52.614;13.500;2023-03-31T06:09:58;10.40;99.90
13835;DHT22;6988;52.614;13.500;2023-03-31T06:14:52;10.70;99.90
13835;DHT22;6988;52.614;13.500;2023-03-31T06:19:45;10.60;99.90
13835;DHT22;6988;52.614;13.500;2023-03-31T06:24:37;10.60;99.90
13835;DHT22;6988;52.614;13.500;2023-03-31T06:29:29;10.60;99.90
13835;DHT22;6988;52.614;13.500;2023-03-31T06:34:23;10.60;99.90
13835;DHT22;6988;52.614;13.500;2023-03-31T06:39:15;10.70;99.90
13835;DHT22;6988;52.614;13.500;2023-03-31T06:44:07;10.80;99.90
13835;DHT22;6988;52.614;13.500;2023-03-31T06:48:59;11.00;99.90
13835;DHT22;6988;52.614;13.500;2023-03-31T06:53:52;10.90;99.90
13835;DHT22;6988;52.614;13.500;2023-03-31T06:58:45;11.00;99.90
13835;DHT22;6988;52.614;13.500;2023-03-31T07:03:36;11.10;99.90
13835;DHT22;6988;52.614;13.500;2023-03-31T07:08:28;11.20;99.90
13835;DHT22;6988;52.614;13.500;2023-03-31T07:13:23;11.30;99.90
13835;DHT22;6988;52.614;13.500;2023-03-31T07:18:17;11.50;99.90
13835;DHT22;6988;52.614;13.500;2023-03-31T07:23:09;11.70;99.90
13835;DHT22;6988;52.614;13.500;2023-03-31T07:28:02;12.20;99.90
13835;DHT22;6988;52.614;13.500;2023-03-31T07:32:57;12.40;99.90
13835;DHT22;6988;52.614;13.500;2023-03-31T07:37:50;12.60;99.90
13835;DHT22;6988;52.614;13.500;2023-03-31T07:42:43;12.80;99.90
13835;DHT22;6988;52.614;13.500;2023-03-31T07:47:36;12.90;99.90
13835;DHT22;6988;52.614;13.500;2023-03-31T07:52:30;13.00;99.90
13835;DHT22;6988;52.614;13.500;2023-03-31T07:57:22;13.10;99.90
13835;DHT22;6988;52.614;13.500;2023-03-31T08:02:15;13.20;99.90
13835;DHT22;6988;52.614;13.500;2023-03-31T08:07:08;13.30;99.90
13835;DHT22;6988;52.614;13.500;2023-03-31T08:12:04;13.60;99.90
13835;DHT22;6988;52.614;13.500;2023-03-31T08:16:56;13.80;99.90
13835;DHT22;6988;52.614;13.500;2023-03-31T08:21:49;13.60;99.90
13835;DHT22;6988;52.614;13.500;2023-03-31T08:26:42;13.40;99.90
13835;DHT22;6988;52.614;13.500;2023-03-31T08:31:35;13.40;99.90
13835;DHT22;6988;52.614;13.500;2023-03-31T08:36:27;13.30;99.90
13835;DHT22;6988;52.614;13.500;2023-03-31T08:41:33;13.30;99.90
13835;DHT22;6988;52.614;13.500;2023-03-31T08:46:34;13.50;99.90
13835;DHT22;6988;52.614;13.500;2023-03-31T08:51:28;13.60;99.90
13835;DHT22;6988;52.614;13.500;2023-03-31T08:56:25;13.80;99.90
13835;DHT22;6988;52.614;13.500;2023-03-31T09:01:23;14.10;99.90
13835;DHT22;6988;52.614;13.500;2023-03-31T09:06:33;14.40;99.90
13835;DHT22;6988;52.614;13.500;2023-03-31T09:11:32;14.90;99.90
13835;DHT22;6988;52.614;13.500;2023-03-31T09:16:31;14.90;99.90
13835;DHT22;6988;52.614;13.500;2023-03-31T09:21:32;14.80;99.90
13835;DHT22;6988;52.614;13.500;2023-03-31T09:26:33;14.80;99.90
13835;DHT22;6988;52.614;13.500;2023-03-31T09:31:30;14.70;99.90
13835;DHT22;6988;52.614;13.500;2023-03-31T09:36:22;14.70;99.90
13835;DHT22;6988;52.614;13.500;2023-03-31T09:41:16;14.80;99.90
13835;DHT22;6988;52.614;13.500;2023-03-31T09:46:15;15.20;99.90
13835;DHT22;6988;52.614;13.500;2023-03-31T09:51:15;15.10;99.90
13835;DHT22;6988;52.614;13.500;2023-03-31T09:56:11;15.20;99.90
13835;DHT22;6988;52.614;13.500;2023-03-31T10:01:06;15.30;99.90
13835;DHT22;6988;52.614;13.500;2023-03-31T10:05:58;15.20;99.90
13835;DHT22;6988;52.614;13.500;2023-03-31T10:10:52;14.90;99.90
13835;DHT22;6988;52.614;13.500;2023-03-31T10:15:45;14.90;99.90
13835;DHT22;6988;52.614;13.500;2023-03-31T10:20:42;14.80;99.90
13835;DHT22;6988;52.614;13.500;2023-03-31T10:25:39;14.80;99.90
13835;DHT22;6988;52.614;13.500;2023-03-31T10:30:34;14.70;99.90
13835;DHT22;6988;52.614;13.500;2023-03-31T10:35:31;14.50;99.90
13835;DHT22;6988;52.614;13.500;2023-03-31T10:40:27;14.50;99.90
13835;DHT22;6988;52.614;13.500;2023-03-31T10:45:24;14.50;99.90
13835;DHT22;6988;52.614;13.500;2023-03-31T10:50:18;14.40;99.90
13835;DHT22;6988;52.614;13.500;2023-03-31T10:55:11;14.40;99.90
13835;DHT22;6988;52.614;13.500;2023-03-31T11:00:15;14.20;99.90
13835;DHT22;6988;52.614;13.500;2023-03-31T11:05:17;14.20;99.90
13835;DHT22;6988;52.614;13.500;2023-03-31T11:10:23;14.20;99.90
13835;DHT22;6988;52.614;13.500;2023-03-31T11:15:29;14.20;99.90
13835;DHT22;6988;52.614;13.500;2023-03-31T11:20:32;14.40;99.90
13835;DHT22;6988;52.614;13.500;2023-03-31T11:25:34;14.60;99.90
13835;DHT22;6988;52.614;13.500;2023-03-31T11:30:38;14.60;99.90
13835;DHT22;6988;52.614;13.500;2023-03-31T11:35:44;14.60;99.90
13835;DHT22;6988;52.614;13.500;2023-03-31T11:40:55;14.80;99.90
13835;DHT22;6988;52.614;13.500;2023-03-31T11:45:55;15.00;99.90
13835;DHT22;6988;52.614;13.500;2023-03-31T11:50:51;15.20;99.90
13835;DHT22;6988;52.614;13.500;2023-03-31T11:55:47;15.30;99.90
13835;DHT22;6988;52.614;13.500;2023-03-31T12:00:45;15.50;99.90
13835;DHT22;6988;52.614;13.500;2023-03-31T12:05:44;15.80;99.90
13835;DHT22;6988;52.614;13.500;2023-03-31T12:10:43;15.90;99.90
13835;DHT22;6988;52.614;13.500;2023-03-31T12:15:45;16.00;99.90
13835;DHT22;6988;52.614;13.500;2023-03-31T12:20:49;16.10;99.90
13835;DHT22;6988;52.614;13.500;2023-03-31T12:25:49;16.10;99.90
13835;DHT22;6988;52.614;13.500;2023-03-31T12:30:49;16.20;99.90
13835;DHT22;6988;52.614;13.500;2023-03-31T12:35:53;15.80;99.90
13835;DHT22;6988;52.614;13.500;2023-03-31T12:41:02;15.30;99.90
13835;DHT22;6988;52.614;13.500;2023-03-31T12:46:13;15.00;99.90
13835;DHT22;6988;52.614;13.500;2023-03-31T12:51:25;14.60;99.90
13835;DHT22;6988;52.614;13.500;2023-03-31T12:57:03;14.20;99.90
13835;DHT22;6988;52.614;13.500;2023-03-31T13:02:21;14.10;99.90
13835;DHT22;6988;52.614;13.500;2023-03-31T13:13:57;14.20;99.90
13835;DHT22;6988;52.614;13.500;2023-03-31T13:18:53;14.10;99.90
13835;DHT22;6988;52.614;13.500;2023-03-31T13:23:46;13.70;99.90
13835;DHT22;6988;52.614;13.500;2023-03-31T13:28:40;13.40;99.90
13835;DHT22;6988;52.614;13.500;2023-03-31T13:33:38;13.00;99.90
13835;DHT22;6988;52.614;13.500;2023-03-31T13:38:44;12.70;99.90
13835;DHT22;6988;52.614;13.500;2023-03-31T13:44:23;12.50;99.90
13835;DHT22;6988;52.614;13.500;2023-03-31T13:49:52;12.20;99.90
13835;DHT22;6988;52.614;13.500;2023-03-31T14:00:48;12.10;99.90
13835;DHT22;6988;52.614;13.500;2023-03-31T14:05:51;12.00;99.90
13835;DHT22;6988;52.614;13.500;2023-03-31T14:10:47;11.80;99.90
13835;DHT22;6988;52.614;13.500;2023-03-31T14:15:42;11.70;99.90
13835;DHT22;6988;52.614;13.500;2023-03-31T14:20:49;11.60;99.90
13835;DHT22;6988;52.614;13.500;2023-03-31T14:25:58;11.50;99.90
13835;DHT22;6988;52.614;13.500;2023-03-31T14:31:07;11.40;99.90
13835;DHT22;6988;52.614;13.500;2023-03-31T14:36:12;11.30;99.90
13835;DHT22;6988;52.614;13.500;2023-03-31T14:41:49;11.20;99.90
13835;DHT22;6988;52.614;13.500;2023-03-31T14:46:42;11.00;99.90
13835;DHT22;6988;52.614;13.500;2023-03-31T14:51:48;10.90;99.90
13835;DHT22;6988;52.614;13.500;2023-03-31T15:03:15;10.80;99.90
13835;DHT22;6988;52.614;13.500;2023-03-31T15:14:45;10.70;99.90
13835;DHT22;6988;52.614;13.500;2023-03-31T15:19:38;10.70;99.90
13835;DHT22;6988;52.614;13.500;2023-03-31T15:24:30;10.60;99.90
13835;DHT22;6988;52.614;13.500;2023-03-31T15:29:25;10.60;99.90
13835;DHT22;6988;52.614;13.500;2023-03-31T15:34:28;10.60;99.90
13835;DHT22;6988;52.614;13.500;2023-03-31T15:39:23;10.60;99.90
13835;DHT22;6988;52.614;13.500;2023-03-31T15:44:29;10.60;99.90
13835;DHT22;6988;52.614;13.500;2023-03-31T15:55:59;10.60;99.90
13835;DHT22;6988;52.614;13.500;2023-03-31T16:00:51;10.60;99.90
13835;DHT22;6988;52.614;13.500;2023-03-31T16:05:51;10.60;99.90
13835;DHT22;6988;52.614;13.500;2023-03-31T16:10:46;10.50;99.90
13835;DHT22;6988;52.614;13.500;2023-03-31T16:15:44;10.50;99.90
13835;DHT22;6988;52.614;13.500;2023-03-31T16:20:42;10.50;99.90
13835;DHT22;6988;52.614;13.500;2023-03-31T16:25:40;10.40;99.90
13835;DHT22;6988;52.614;13.500;2023-03-31T16:30:35;10.40;99.90
13835;DHT22;6988;52.614;13.500;2023-03-31T16:35:36;10.30;99.90
13835;DHT22;6988;52.614;13.500;2023-03-31T16:40:30;10.40;99.90
13835;DHT22;6988;52.614;13.500;2023-03-31T16:45:26;10.30;99.90
13835;DHT22;6988;52.614;13.500;2023-03-31T16:50:18;10.30;99.90
13835;DHT22;6988;52.614;13.500;2023-03-31T16:55:11;10.30;99.90
13835;DHT22;6988;52.614;13.500;2023-03-31T17:00:04;10.30;99.90
13835;DHT22;6988;52.614;13.500;2023-03-31T17:04:57;10.30;99.90
13835;DHT22;6988;52.614;13.500;2023-03-31T17:09:48;10.30;99.90
13835;DHT22;6988;52.614;13.500;2023-03-31T17:14:42;10.20;99.90
13835;DHT22;6988;52.614;13.500;2023-03-31T17:19:34;10.30;99.90
13835;DHT22;6988;52.614;13.500;2023-03-31T17:24:25;10.20;99.90
13835;DHT22;6988;52.614;13.500;2023-03-31T17:29:17;10.30;99.90
13835;DHT22;6988;52.614;13.500;2023-03-31T17:34:11;10.20;99.90
13835;DHT22;6988;52.614;13.500;2023-03-31T17:39:03;10.20;99.90
13835;DHT22;6988;52.614;13.500;2023-03-31T17:43:55;10.10;99.90
13835;DHT22;6988;52.614;13.500;2023-03-31T17:48:48;10.10;99.90
13835;DHT22;6988;52.614;13.500;2023-03-31T17:53:42;10.10;99.90
13835;DHT22;6988;52.614;13.500;2023-03-31T17:58:35;10.10;99.90
13835;DHT22;6988;52.614;13.500;2023-03-31T18:03:28;10.10;99.90
13835;DHT22;6988;52.614;13.500;2023-03-31T18:08:20;10.10;99.90
13835;DHT22;6988;52.614;13.500;2023-03-31T18:13:13;10.20;99.90
13835;DHT22;6988;52.614;13.500;2023-03-31T18:18:06;10.10;99.90
13835;DHT22;6988;52.614;13.500;2023-03-31T18:22:57;10.10;99.90
13835;DHT22;6988;52.614;13.500;2023-03-31T18:27:50;10.10;99.90
13835;DHT22;6988;52.614;13.500;2023-03-31T18:32:43;10.10;99.90
13835;DHT22;6988;52.614;13.500;2023-03-31T18:37:34;10.20;99.90
13835;DHT22;6988;52.614;13.500;2023-03-31T18:42:26;10.00;99.90
13835;DHT22;6988;52.614;13.500;2023-03-31T18:47:18;10.10;99.90
13835;DHT22;6988;52.614;13.500;2023-03-31T18:52:12;10.00;99.90
13835;DHT22;6988;52.614;13.500;2023-03-31T18:57:04;10.10;99.90
13835;DHT22;6988;52.614;13.500;2023-03-31T19:01:56;10.10;99.90
13835;DHT22;6988;52.614;13.500;2023-03-31T19:06:48;10.10;99.90
13835;DHT22;6988;52.614;13.500;2023-03-31T19:11:41;10.10;99.90
13835;DHT22;6988;52.614;13.500;2023-03-31T19:16:33;10.00;99.90
13835;DHT22;6988;52.614;13.500;2023-03-31T19:21:31;10.10;99.90
13835;DHT22;6988;52.614;13.500;2023-03-31T19:26:25;10.10;99.90
13835;DHT22;6988;52.614;13.500;2023-03-31T19:31:18;10.10;99.90
13835;DHT22;6988;52.614;13.500;2023-03-31T19:36:10;10.10;99.90
13835;DHT22;6988;52.614;13.500;2023-03-31T19:41:03;10.10;99.90
13835;DHT22;6988;52.614;13.500;2023-03-31T19:45:56;10.10;99.90
13835;DHT22;6988;52.614;13.500;2023-03-31T19:50:50;10.00;99.90
13835;DHT22;6988;52.614;13.500;2023-03-31T19:55:53;10.00;99.90
13835;DHT22;6988;52.614;13.500;2023-03-31T20:00:46;10.00;99.90
13835;DHT22;6988;52.614;13.500;2023-03-31T20:05:41;9.90;99.90
13835;DHT22;6988;52.614;13.500;2023-03-31T20:10:34;9.80;99.90
13835;DHT22;6988;52.614;13.500;2023-03-31T20:15:26;10.00;99.90
13835;DHT22;6988;52.614;13.500;2023-03-31T20:20:17;10.00;99.90
13835;DHT22;6988;52.614;13.500;2023-03-31T20:25:09;9.90;99.90
13835;DHT22;6988;52.614;13.500;2023-03-31T20:30:03;9.90;99.90
13835;DHT22;6988;52.614;13.500;2023-03-31T20:34:55;9.90;99.90
13835;DHT22;6988;52.614;13.500;2023-03-31T20:39:47;9.90;99.90
13835;DHT22;6988;52.614;13.500;2023-03-31T20:44:39;9.90;99.90
13835;DHT22;6988;52.614;13.500;2023-03-31T20:49:32;9.90;99.90
13835;DHT22;6988;52.614;13.500;2023-03-31T20:54:24;9.90;99.90
13835;DHT22;6988;52.614;13.500;2023-03-31T20:59:16;10.00;99.90
13835;DHT22;6988;52.614;13.500;2023-03-31T21:04:10;10.00;99.90
13835;DHT22;6988;52.614;13.500;2023-03-31T21:09:03;9.90;99.90
13835;DHT22;6988;52.614;13.500;2023-03-31T21:13:56;10.00;99.90
13835;DHT22;6988;52.614;13.500;2023-03-31T21:18:47;10.00;99.90
13835;DHT22;6988;52.614;13.500;2023-03-31T21:23:40;10.00;99.90
13835;DHT22;6988;52.614;13.500;2023-03-31T21:28:37;10.00;99.90
13835;DHT22;6988;52.614;13.500;2023-03-31T21:33:30;10.00;99.90
13835;DHT22;6988;52.614;13.500;2023-03-31T21:38:23;10.00;99.90
13835;DHT22;6988;52.614;13.500;2023-03-31T21:43:15;10.00;99.90
13835;DHT22;6988;52.614;13.500;2023-03-31T22:03:57;9.90;99.90
13835;DHT22;6988;52.614;13.500;2023-03-31T22:08:49;9.90;99.90
13835;DHT22;6988;52.614;13.500;2023-03-31T22:13:41;9.90;99.90
13835;DHT22;6988;52.614;13.500;2023-03-31T22:18:33;9.90;99.90
13835;DHT22;6988;52.614;13.500;2023-03-31T22:23:26;9.90;99.90
13835;DHT22;6988;52.614;13.500;2023-03-31T22:28:18;9.90;99.90
13835;DHT22;6988;52.614;13.500;2023-03-31T22:33:11;9.90;99.90
13835;DHT22;6988;52.614;13.500;2023-03-31T22:38:03;9.90;99.90
13835;DHT22;6988;52.614;13.500;2023-03-31T22:42:56;9.90;99.90
13835;DHT22;6988;52.614;13.500;2023-03-31T22:47:50;9.90;99.90
13835;DHT22;6988;52.614;13.500;2023-03-31T22:52:42;9.80;99.90
13835;DHT22;6988;52.614;13.500;2023-03-31T22:57:34;9.80;99.90
13835;DHT22;6988;52.614;13.500;2023-03-31T23:02:28;9.80;99.90
13835;DHT22;6988;52.614;13.500;2023-03-31T23:07:20;9.70;99.90
13835;DHT22;6988;52.614;13.500;2023-03-31T23:12:12;9.70;99.90
13835;DHT22;6988;52.614;13.500;2023-03-31T23:17:03;9.70;99.90
13835;DHT22;6988;52.614;13.500;2023-03-31T23:21:57;9.70;99.90
13835;DHT22;6988;52.614;13.500;2023-03-31T23:26:51;9.70;99.90
13835;DHT22;6988;52.614;13.500;2023-03-31T23:31:43;9.70;99.90
13835;DHT22;6988;52.614;13.500;2023-03-31T23:36:35;9.60;99.90
13835;DHT22;6988;52.614;13.500;2023-03-31T23:41:28;9.60;99.90
13835;DHT22;6988;52.614;13.500;2023-03-31T23:46:20;9.60;99.90
13835;DHT22;6988;52.614;13.500;2023-03-31T23:51:13;9.60;99.90
13835;DHT22;6988;52.614;13.500;2023-03-31T23:56:08;9.60;99.90
